sensor_id;sensor_type;location;lat;lon;timestamp;P1;durP1;ratioP1;P2;durP2;ratioP2
14907;SDS011;7545;52.092;7.006;2023-08-01T00:01:56;2.50;;;1.23;;
14907;SDS011;7545;52.092;7.006;2023-08-01T00:04:22;2.25;;;1.20;;
14907;SDS011;7545;52.092;7.006;2023-08-01T00:06:47;1.52;;;1.38;;
14907;SDS011;7545;52.092;7.006;2023-08-01T00:09:13;6.10;;;1.42;;
14907;SDS011;7545;52.092;7.006;2023-08-01T00:11:38;1.73;;;1.42;;
14907;SDS011;7545;52.092;7.006;2023-08-01T00:14:04;2.35;;;1.45;;
14907;SDS011;7545;52.092;7.006;2023-08-01T00:16:29;3.45;;;1.25;;
14907;SDS011;7545;52.092;7.006;2023-08-01T00:18:57;1.95;;;1.67;;
14907;SDS011;7545;52.092;7.006;2023-08-01T00:21:22;1.90;;;1.40;;
14907;SDS011;7545;52.092;7.006;2023-08-01T00:23:48;2.30;;;1.50;;
14907;SDS011;7545;52.092;7.006;2023-08-01T00:26:14;2.38;;;1.58;;
14907;SDS011;7545;52.092;7.006;2023-08-01T00:28:40;3.38;;;1.40;;
14907;SDS011;7545;52.092;7.006;2023-08-01T00:31:06;3.22;;;1.85;;
14907;SDS011;7545;52.092;7.006;2023-08-01T00:33:36;2.58;;;1.58;;
14907;SDS011;7545;52.092;7.006;2023-08-01T00:36:02;2.60;;;1.90;;
14907;SDS011;7545;52.092;7.006;2023-08-01T00:38:28;1.92;;;1.77;;
14907;SDS011;7545;52.092;7.006;2023-08-01T00:40:53;3.25;;;1.60;;
14907;SDS011;7545;52.092;7.006;2023-08-01T00:43:19;2.95;;;2.13;;
14907;SDS011;7545;52.092;7.006;2023-08-01T00:45:45;2.42;;;1.95;;
14907;SDS011;7545;52.092;7.006;2023-08-01T00:48:11;4.10;;;2.05;;
14907;SDS011;7545;52.092;7.006;2023-08-01T00:50:37;2.55;;;1.90;;
14907;SDS011;7545;52.092;7.006;2023-08-01T00:53:04;3.53;;;2.30;;
14907;SDS011;7545;52.092;7.006;2023-08-01T00:55:31;3.80;;;1.85;;
14907;SDS011;7545;52.092;7.006;2023-08-01T00:57:59;2.88;;;2.20;;
14907;SDS011;7545;52.092;7.006;2023-08-01T01:00:24;4.00;;;2.80;;
14907;SDS011;7545;52.092;7.006;2023-08-01T01:02:50;3.75;;;3.10;;
14907;SDS011;7545;52.092;7.006;2023-08-01T01:05:16;3.75;;;2.67;;
14907;SDS011;7545;52.092;7.006;2023-08-01T01:07:42;3.85;;;2.58;;
14907;SDS011;7545;52.092;7.006;2023-08-01T01:10:09;2.67;;;2.45;;
14907;SDS011;7545;52.092;7.006;2023-08-01T01:12:35;4.32;;;3.25;;
14907;SDS011;7545;52.092;7.006;2023-08-01T01:15:00;3.95;;;2.65;;
14907;SDS011;7545;52.092;7.006;2023-08-01T01:17:26;6.35;;;3.20;;
14907;SDS011;7545;52.092;7.006;2023-08-01T01:19:51;5.90;;;4.90;;
14907;SDS011;7545;52.092;7.006;2023-08-01T01:22:19;3.45;;;2.75;;
14907;SDS011;7545;52.092;7.006;2023-08-01T01:24:44;3.45;;;2.60;;
14907;SDS011;7545;52.092;7.006;2023-08-01T01:27:11;6.32;;;3.67;;
14907;SDS011;7545;52.092;7.006;2023-08-01T01:29:38;4.07;;;3.20;;
14907;SDS011;7545;52.092;7.006;2023-08-01T01:32:05;4.75;;;3.13;;
14907;SDS011;7545;52.092;7.006;2023-08-01T01:34:32;4.75;;;3.40;;
14907;SDS011;7545;52.092;7.006;2023-08-01T01:36:57;4.15;;;3.10;;
14907;SDS011;7545;52.092;7.006;2023-08-01T01:39:23;3.70;;;3.10;;
14907;SDS011;7545;52.092;7.006;2023-08-01T01:41:48;5.22;;;4.05;;
14907;SDS011;7545;52.092;7.006;2023-08-01T01:44:14;5.22;;;3.67;;
14907;SDS011;7545;52.092;7.006;2023-08-01T01:46:39;4.85;;;3.70;;
14907;SDS011;7545;52.092;7.006;2023-08-01T01:49:05;5.80;;;3.47;;
14907;SDS011;7545;52.092;7.006;2023-08-01T01:51:31;4.55;;;3.58;;
14907;SDS011;7545;52.092;7.006;2023-08-01T01:53:57;5.07;;;4.32;;
14907;SDS011;7545;52.092;7.006;2023-08-01T01:56:22;5.40;;;4.07;;
14907;SDS011;7545;52.092;7.006;2023-08-01T01:58:48;6.47;;;4.40;;
14907;SDS011;7545;52.092;7.006;2023-08-01T02:01:13;4.75;;;3.60;;
14907;SDS011;7545;52.092;7.006;2023-08-01T02:03:39;4.38;;;3.85;;
14907;SDS011;7545;52.092;7.006;2023-08-01T02:06:05;5.63;;;4.05;;
14907;SDS011;7545;52.092;7.006;2023-08-01T02:08:31;4.35;;;3.53;;
14907;SDS011;7545;52.092;7.006;2023-08-01T02:10:56;5.55;;;3.35;;
14907;SDS011;7545;52.092;7.006;2023-08-01T02:13:26;6.22;;;4.20;;
14907;SDS011;7545;52.092;7.006;2023-08-01T02:15:52;6.80;;;4.03;;
14907;SDS011;7545;52.092;7.006;2023-08-01T02:18:19;5.65;;;3.45;;
14907;SDS011;7545;52.092;7.006;2023-08-01T02:20:44;6.47;;;4.30;;
14907;SDS011;7545;52.092;7.006;2023-08-01T02:23:10;6.22;;;4.10;;
14907;SDS011;7545;52.092;7.006;2023-08-01T02:25:39;8.50;;;4.65;;
14907;SDS011;7545;52.092;7.006;2023-08-01T02:28:05;5.07;;;3.72;;
14907;SDS011;7545;52.092;7.006;2023-08-01T02:30:31;4.85;;;3.70;;
14907;SDS011;7545;52.092;7.006;2023-08-01T02:32:57;8.73;;;4.43;;
14907;SDS011;7545;52.092;7.006;2023-08-01T02:35:23;9.02;;;4.20;;
14907;SDS011;7545;52.092;7.006;2023-08-01T02:37:48;4.78;;;3.67;;
14907;SDS011;7545;52.092;7.006;2023-08-01T02:40:14;4.82;;;3.63;;
14907;SDS011;7545;52.092;7.006;2023-08-01T02:42:39;5.97;;;4.25;;
14907;SDS011;7545;52.092;7.006;2023-08-01T02:45:05;6.97;;;4.38;;
14907;SDS011;7545;52.092;7.006;2023-08-01T02:47:31;4.53;;;3.88;;
14907;SDS011;7545;52.092;7.006;2023-08-01T02:49:56;6.20;;;3.67;;
14907;SDS011;7545;52.092;7.006;2023-08-01T02:52:22;5.93;;;4.13;;
14907;SDS011;7545;52.092;7.006;2023-08-01T02:54:48;5.40;;;3.60;;
14907;SDS011;7545;52.092;7.006;2023-08-01T02:57:13;5.28;;;3.40;;
14907;SDS011;7545;52.092;7.006;2023-08-01T02:59:39;5.28;;;3.55;;
14907;SDS011;7545;52.092;7.006;2023-08-01T03:02:04;6.07;;;5.13;;
14907;SDS011;7545;52.092;7.006;2023-08-01T03:04:30;6.95;;;3.40;;
14907;SDS011;7545;52.092;7.006;2023-08-01T03:06:55;5.43;;;4.13;;
14907;SDS011;7545;52.092;7.006;2023-08-01T03:09:21;7.80;;;4.10;;
14907;SDS011;7545;52.092;7.006;2023-08-01T03:11:46;11.27;;;3.58;;
14907;SDS011;7545;52.092;7.006;2023-08-01T03:14:12;4.85;;;2.95;;
14907;SDS011;7545;52.092;7.006;2023-08-01T03:16:38;7.00;;;4.20;;
14907;SDS011;7545;52.092;7.006;2023-08-01T03:19:03;6.75;;;3.67;;
14907;SDS011;7545;52.092;7.006;2023-08-01T03:21:33;6.13;;;3.83;;
14907;SDS011;7545;52.092;7.006;2023-08-01T03:23:59;10.48;;;3.78;;
14907;SDS011;7545;52.092;7.006;2023-08-01T03:26:26;6.88;;;3.55;;
14907;SDS011;7545;52.092;7.006;2023-08-01T03:28:53;5.60;;;3.65;;
14907;SDS011;7545;52.092;7.006;2023-08-01T03:31:20;7.50;;;4.25;;
14907;SDS011;7545;52.092;7.006;2023-08-01T03:33:46;5.40;;;3.38;;
14907;SDS011;7545;52.092;7.006;2023-08-01T03:36:12;7.60;;;4.00;;
14907;SDS011;7545;52.092;7.006;2023-08-01T03:38:38;5.40;;;3.42;;
14907;SDS011;7545;52.092;7.006;2023-08-01T03:41:04;10.88;;;4.32;;
14907;SDS011;7545;52.092;7.006;2023-08-01T03:43:30;4.68;;;3.28;;
14907;SDS011;7545;52.092;7.006;2023-08-01T03:45:55;3.97;;;3.30;;
14907;SDS011;7545;52.092;7.006;2023-08-01T03:48:21;8.80;;;4.20;;
14907;SDS011;7545;52.092;7.006;2023-08-01T03:50:47;11.90;;;4.57;;
14907;SDS011;7545;52.092;7.006;2023-08-01T03:53:13;6.82;;;3.25;;
14907;SDS011;7545;52.092;7.006;2023-08-01T03:55:38;4.63;;;3.30;;
14907;SDS011;7545;52.092;7.006;2023-08-01T03:58:04;8.13;;;3.78;;
14907;SDS011;7545;52.092;7.006;2023-08-01T04:00:30;7.10;;;3.78;;
14907;SDS011;7545;52.092;7.006;2023-08-01T04:02:58;7.13;;;3.80;;
14907;SDS011;7545;52.092;7.006;2023-08-01T04:05:23;6.50;;;3.55;;
14907;SDS011;7545;52.092;7.006;2023-08-01T04:07:49;9.15;;;4.25;;
14907;SDS011;7545;52.092;7.006;2023-08-01T04:10:15;9.70;;;4.57;;
14907;SDS011;7545;52.092;7.006;2023-08-01T04:12:41;6.60;;;4.10;;
14907;SDS011;7545;52.092;7.006;2023-08-01T04:15:07;7.95;;;3.67;;
14907;SDS011;7545;52.092;7.006;2023-08-01T04:17:34;8.20;;;4.80;;
14907;SDS011;7545;52.092;7.006;2023-08-01T04:19:59;12.48;;;5.40;;
14907;SDS011;7545;52.092;7.006;2023-08-01T04:22:25;7.70;;;4.18;;
14907;SDS011;7545;52.092;7.006;2023-08-01T04:24:50;7.35;;;4.45;;
14907;SDS011;7545;52.092;7.006;2023-08-01T04:27:16;8.15;;;5.15;;
14907;SDS011;7545;52.092;7.006;2023-08-01T04:29:42;7.03;;;5.40;;
14907;SDS011;7545;52.092;7.006;2023-08-01T04:32:08;8.68;;;4.85;;
14907;SDS011;7545;52.092;7.006;2023-08-01T04:34:33;10.70;;;5.10;;
14907;SDS011;7545;52.092;7.006;2023-08-01T04:36:59;11.77;;;5.25;;
14907;SDS011;7545;52.092;7.006;2023-08-01T04:39:24;8.40;;;6.15;;
14907;SDS011;7545;52.092;7.006;2023-08-01T04:41:50;10.82;;;5.70;;
14907;SDS011;7545;52.092;7.006;2023-08-01T04:44:15;9.18;;;5.45;;
14907;SDS011;7545;52.092;7.006;2023-08-01T04:46:41;9.13;;;5.28;;
14907;SDS011;7545;52.092;7.006;2023-08-01T04:49:07;10.60;;;4.95;;
14907;SDS011;7545;52.092;7.006;2023-08-01T04:51:32;9.50;;;6.65;;
14907;SDS011;7545;52.092;7.006;2023-08-01T04:53:58;9.63;;;5.97;;
14907;SDS011;7545;52.092;7.006;2023-08-01T04:56:24;11.68;;;6.43;;
14907;SDS011;7545;52.092;7.006;2023-08-01T04:58:49;9.82;;;6.55;;
14907;SDS011;7545;52.092;7.006;2023-08-01T05:01:15;13.52;;;6.63;;
14907;SDS011;7545;52.092;7.006;2023-08-01T05:03:40;10.32;;;5.63;;
14907;SDS011;7545;52.092;7.006;2023-08-01T05:06:06;9.50;;;6.90;;
14907;SDS011;7545;52.092;7.006;2023-08-01T05:08:31;14.52;;;7.25;;
14907;SDS011;7545;52.092;7.006;2023-08-01T05:10:58;13.52;;;6.82;;
14907;SDS011;7545;52.092;7.006;2023-08-01T05:13:23;11.07;;;6.35;;
14907;SDS011;7545;52.092;7.006;2023-08-01T05:15:49;9.80;;;6.32;;
14907;SDS011;7545;52.092;7.006;2023-08-01T05:18:17;10.02;;;6.57;;
14907;SDS011;7545;52.092;7.006;2023-08-01T05:20:44;9.80;;;6.40;;
14907;SDS011;7545;52.092;7.006;2023-08-01T05:23:09;11.15;;;6.32;;
14907;SDS011;7545;52.092;7.006;2023-08-01T05:25:35;11.98;;;7.25;;
14907;SDS011;7545;52.092;7.006;2023-08-01T05:28:00;7.95;;;5.65;;
14907;SDS011;7545;52.092;7.006;2023-08-01T05:30:26;8.70;;;6.13;;
14907;SDS011;7545;52.092;7.006;2023-08-01T05:32:52;7.40;;;5.10;;
14907;SDS011;7545;52.092;7.006;2023-08-01T05:35:18;8.02;;;4.38;;
14907;SDS011;7545;52.092;7.006;2023-08-01T05:37:45;5.82;;;4.07;;
14907;SDS011;7545;52.092;7.006;2023-08-01T05:40:11;6.35;;;3.75;;
14907;SDS011;7545;52.092;7.006;2023-08-01T05:42:36;5.22;;;3.25;;
14907;SDS011;7545;52.092;7.006;2023-08-01T05:45:02;5.32;;;2.80;;
14907;SDS011;7545;52.092;7.006;2023-08-01T05:47:29;6.80;;;2.30;;
14907;SDS011;7545;52.092;7.006;2023-08-01T05:49:54;6.20;;;3.10;;
14907;SDS011;7545;52.092;7.006;2023-08-01T05:52:20;4.88;;;2.33;;
14907;SDS011;7545;52.092;7.006;2023-08-01T05:54:46;2.03;;;1.75;;
14907;SDS011;7545;52.092;7.006;2023-08-01T05:57:11;4.90;;;2.10;;
14907;SDS011;7545;52.092;7.006;2023-08-01T05:59:37;3.17;;;1.80;;
14907;SDS011;7545;52.092;7.006;2023-08-01T06:02:02;1.85;;;1.67;;
14907;SDS011;7545;52.092;7.006;2023-08-01T06:04:28;3.13;;;1.70;;
14907;SDS011;7545;52.092;7.006;2023-08-01T06:06:54;4.00;;;1.60;;
14907;SDS011;7545;52.092;7.006;2023-08-01T06:09:19;2.85;;;2.30;;
14907;SDS011;7545;52.092;7.006;2023-08-01T06:11:45;3.40;;;1.67;;
14907;SDS011;7545;52.092;7.006;2023-08-01T06:14:11;4.30;;;2.03;;
14907;SDS011;7545;52.092;7.006;2023-08-01T06:16:37;4.63;;;2.00;;
14907;SDS011;7545;52.092;7.006;2023-08-01T06:19:02;2.88;;;1.77;;
14907;SDS011;7545;52.092;7.006;2023-08-01T06:21:29;2.83;;;1.80;;
14907;SDS011;7545;52.092;7.006;2023-08-01T06:23:54;3.88;;;1.50;;
14907;SDS011;7545;52.092;7.006;2023-08-01T06:26:20;3.85;;;1.67;;
14907;SDS011;7545;52.092;7.006;2023-08-01T06:28:46;4.95;;;1.90;;
14907;SDS011;7545;52.092;7.006;2023-08-01T06:31:11;2.40;;;1.75;;
14907;SDS011;7545;52.092;7.006;2023-08-01T06:33:37;2.63;;;1.88;;
14907;SDS011;7545;52.092;7.006;2023-08-01T06:36:02;4.47;;;1.88;;
14907;SDS011;7545;52.092;7.006;2023-08-01T06:38:28;4.55;;;1.83;;
14907;SDS011;7545;52.092;7.006;2023-08-01T06:40:54;5.03;;;2.55;;
14907;SDS011;7545;52.092;7.006;2023-08-01T06:43:19;5.50;;;2.55;;
14907;SDS011;7545;52.092;7.006;2023-08-01T06:45:45;6.95;;;2.60;;
14907;SDS011;7545;52.092;7.006;2023-08-01T06:48:11;3.72;;;2.67;;
14907;SDS011;7545;52.092;7.006;2023-08-01T06:50:36;5.35;;;2.92;;
14907;SDS011;7545;52.092;7.006;2023-08-01T06:53:02;7.90;;;4.30;;
14907;SDS011;7545;52.092;7.006;2023-08-01T06:55:27;9.38;;;4.05;;
14907;SDS011;7545;52.092;7.006;2023-08-01T06:57:53;8.07;;;3.60;;
14907;SDS011;7545;52.092;7.006;2023-08-01T07:00:18;7.10;;;4.35;;
14907;SDS011;7545;52.092;7.006;2023-08-01T07:02:44;4.78;;;3.42;;
14907;SDS011;7545;52.092;7.006;2023-08-01T07:05:10;10.40;;;4.35;;
14907;SDS011;7545;52.092;7.006;2023-08-01T07:07:35;6.68;;;5.15;;
14907;SDS011;7545;52.092;7.006;2023-08-01T07:10:01;13.10;;;4.90;;
14907;SDS011;7545;52.092;7.006;2023-08-01T07:12:27;7.60;;;4.63;;
14907;SDS011;7545;52.092;7.006;2023-08-01T07:14:52;7.40;;;4.22;;
14907;SDS011;7545;52.092;7.006;2023-08-01T07:17:18;7.97;;;4.15;;
14907;SDS011;7545;52.092;7.006;2023-08-01T07:19:43;9.63;;;4.60;;
14907;SDS011;7545;52.092;7.006;2023-08-01T07:22:09;8.45;;;4.50;;
14907;SDS011;7545;52.092;7.006;2023-08-01T07:24:35;7.97;;;4.43;;
14907;SDS011;7545;52.092;7.006;2023-08-01T07:27:00;11.73;;;4.63;;
14907;SDS011;7545;52.092;7.006;2023-08-01T07:29:26;8.98;;;4.82;;
14907;SDS011;7545;52.092;7.006;2023-08-01T07:31:51;9.55;;;4.63;;
14907;SDS011;7545;52.092;7.006;2023-08-01T07:34:17;10.52;;;4.35;;
14907;SDS011;7545;52.092;7.006;2023-08-01T07:36:42;8.15;;;4.20;;
14907;SDS011;7545;52.092;7.006;2023-08-01T07:39:08;9.70;;;4.05;;
14907;SDS011;7545;52.092;7.006;2023-08-01T07:41:35;9.52;;;4.57;;
14907;SDS011;7545;52.092;7.006;2023-08-01T07:44:01;9.30;;;4.53;;
14907;SDS011;7545;52.092;7.006;2023-08-01T07:46:31;7.35;;;4.82;;
14907;SDS011;7545;52.092;7.006;2023-08-01T07:48:57;7.15;;;4.00;;
14907;SDS011;7545;52.092;7.006;2023-08-01T07:51:24;7.97;;;3.67;;
14907;SDS011;7545;52.092;7.006;2023-08-01T07:53:50;6.68;;;3.78;;
14907;SDS011;7545;52.092;7.006;2023-08-01T07:56:17;6.95;;;4.38;;
14907;SDS011;7545;52.092;7.006;2023-08-01T07:58:43;10.77;;;3.85;;
14907;SDS011;7545;52.092;7.006;2023-08-01T08:01:09;6.38;;;3.33;;
14907;SDS011;7545;52.092;7.006;2023-08-01T08:03:34;8.27;;;3.25;;
14907;SDS011;7545;52.092;7.006;2023-08-01T08:06:00;6.85;;;3.67;;
14907;SDS011;7545;52.092;7.006;2023-08-01T08:08:27;5.07;;;3.47;;
14907;SDS011;7545;52.092;7.006;2023-08-01T08:10:52;4.22;;;2.92;;
14907;SDS011;7545;52.092;7.006;2023-08-01T08:13:18;6.35;;;2.83;;
14907;SDS011;7545;52.092;7.006;2023-08-01T08:15:43;4.90;;;3.55;;
14907;SDS011;7545;52.092;7.006;2023-08-01T08:18:09;9.48;;;3.42;;
14907;SDS011;7545;52.092;7.006;2023-08-01T08:20:40;5.95;;;3.22;;
14907;SDS011;7545;52.092;7.006;2023-08-01T08:23:10;7.05;;;3.13;;
14907;SDS011;7545;52.092;7.006;2023-08-01T08:25:38;10.38;;;3.88;;
14907;SDS011;7545;52.092;7.006;2023-08-01T08:28:03;8.00;;;3.00;;
14907;SDS011;7545;52.092;7.006;2023-08-01T08:30:29;10.35;;;3.90;;
14907;SDS011;7545;52.092;7.006;2023-08-01T08:32:56;6.80;;;3.33;;
14907;SDS011;7545;52.092;7.006;2023-08-01T08:35:23;4.07;;;2.65;;
14907;SDS011;7545;52.092;7.006;2023-08-01T08:37:48;7.15;;;3.10;;
14907;SDS011;7545;52.092;7.006;2023-08-01T08:40:14;4.53;;;2.63;;
14907;SDS011;7545;52.092;7.006;2023-08-01T08:42:39;6.45;;;3.38;;
14907;SDS011;7545;52.092;7.006;2023-08-01T08:45:06;8.35;;;3.95;;
14907;SDS011;7545;52.092;7.006;2023-08-01T08:47:36;7.80;;;3.95;;
14907;SDS011;7545;52.092;7.006;2023-08-01T08:50:04;5.82;;;2.78;;
14907;SDS011;7545;52.092;7.006;2023-08-01T08:52:30;7.65;;;2.70;;
14907;SDS011;7545;52.092;7.006;2023-08-01T08:54:55;8.70;;;2.83;;
14907;SDS011;7545;52.092;7.006;2023-08-01T08:57:22;4.22;;;2.33;;
14907;SDS011;7545;52.092;7.006;2023-08-01T08:59:48;5.05;;;3.10;;
14907;SDS011;7545;52.092;7.006;2023-08-01T09:02:15;5.55;;;2.40;;
14907;SDS011;7545;52.092;7.006;2023-08-01T09:04:42;4.68;;;2.53;;
14907;SDS011;7545;52.092;7.006;2023-08-01T09:07:08;6.90;;;3.30;;
14907;SDS011;7545;52.092;7.006;2023-08-01T09:09:36;4.82;;;2.50;;
14907;SDS011;7545;52.092;7.006;2023-08-01T09:12:02;5.65;;;2.72;;
14907;SDS011;7545;52.092;7.006;2023-08-01T09:14:28;3.53;;;2.13;;
14907;SDS011;7545;52.092;7.006;2023-08-01T09:16:54;4.38;;;2.15;;
14907;SDS011;7545;52.092;7.006;2023-08-01T09:19:29;3.67;;;1.92;;
14907;SDS011;7545;52.092;7.006;2023-08-01T09:21:55;3.88;;;2.08;;
14907;SDS011;7545;52.092;7.006;2023-08-01T09:24:21;7.15;;;2.33;;
14907;SDS011;7545;52.092;7.006;2023-08-01T09:26:47;5.50;;;1.70;;
14907;SDS011;7545;52.092;7.006;2023-08-01T09:29:15;5.57;;;1.83;;
14907;SDS011;7545;52.092;7.006;2023-08-01T09:31:42;2.92;;;1.50;;
14907;SDS011;7545;52.092;7.006;2023-08-01T09:34:22;4.55;;;1.90;;
14907;SDS011;7545;52.092;7.006;2023-08-01T09:36:49;2.90;;;1.30;;
14907;SDS011;7545;52.092;7.006;2023-08-01T09:39:19;3.10;;;2.00;;
14907;SDS011;7545;52.092;7.006;2023-08-01T09:41:46;2.60;;;1.50;;
14907;SDS011;7545;52.092;7.006;2023-08-01T09:44:22;5.95;;;2.35;;
14907;SDS011;7545;52.092;7.006;2023-08-01T09:47:00;6.53;;;2.25;;
14907;SDS011;7545;52.092;7.006;2023-08-01T09:49:28;4.72;;;1.92;;
14907;SDS011;7545;52.092;7.006;2023-08-01T09:51:54;4.40;;;2.60;;
14907;SDS011;7545;52.092;7.006;2023-08-01T09:54:20;7.25;;;3.30;;
14907;SDS011;7545;52.092;7.006;2023-08-01T09:56:47;6.35;;;2.03;;
14907;SDS011;7545;52.092;7.006;2023-08-01T09:59:16;7.15;;;2.50;;
14907;SDS011;7545;52.092;7.006;2023-08-01T10:01:48;4.15;;;2.22;;
14907;SDS011;7545;52.092;7.006;2023-08-01T10:04:16;3.60;;;2.10;;
14907;SDS011;7545;52.092;7.006;2023-08-01T10:06:59;5.60;;;2.00;;
14907;SDS011;7545;52.092;7.006;2023-08-01T10:09:26;8.38;;;2.00;;
14907;SDS011;7545;52.092;7.006;2023-08-01T10:11:56;3.47;;;1.95;;
14907;SDS011;7545;52.092;7.006;2023-08-01T10:14:22;3.58;;;2.72;;
14907;SDS011;7545;52.092;7.006;2023-08-01T10:16:48;4.30;;;2.20;;
14907;SDS011;7545;52.092;7.006;2023-08-01T10:19:16;5.05;;;2.60;;
14907;SDS011;7545;52.092;7.006;2023-08-01T10:21:42;5.35;;;1.88;;
14907;SDS011;7545;52.092;7.006;2023-08-01T10:24:10;4.43;;;2.25;;
14907;SDS011;7545;52.092;7.006;2023-08-01T10:26:37;4.88;;;2.25;;
14907;SDS011;7545;52.092;7.006;2023-08-01T10:29:03;8.32;;;2.65;;
14907;SDS011;7545;52.092;7.006;2023-08-01T10:31:28;9.60;;;2.53;;
14907;SDS011;7545;52.092;7.006;2023-08-01T10:34:03;5.25;;;2.63;;
14907;SDS011;7545;52.092;7.006;2023-08-01T10:36:37;3.65;;;1.70;;
14907;SDS011;7545;52.092;7.006;2023-08-01T10:39:03;6.28;;;2.60;;
14907;SDS011;7545;52.092;7.006;2023-08-01T10:41:32;6.13;;;2.25;;
14907;SDS011;7545;52.092;7.006;2023-08-01T10:44:06;5.82;;;2.45;;
14907;SDS011;7545;52.092;7.006;2023-08-01T10:49:15;6.20;;;2.30;;
14907;SDS011;7545;52.092;7.006;2023-08-01T10:51:42;5.30;;;2.78;;
14907;SDS011;7545;52.092;7.006;2023-08-01T10:54:18;9.38;;;2.67;;
14907;SDS011;7545;52.092;7.006;2023-08-01T10:56:46;6.80;;;2.40;;
14907;SDS011;7545;52.092;7.006;2023-08-01T10:59:13;4.65;;;2.88;;
14907;SDS011;7545;52.092;7.006;2023-08-01T11:01:47;10.35;;;3.35;;
14907;SDS011;7545;52.092;7.006;2023-08-01T11:04:14;5.65;;;2.60;;
14907;SDS011;7545;52.092;7.006;2023-08-01T11:06:44;3.50;;;2.60;;
14907;SDS011;7545;52.092;7.006;2023-08-01T11:09:15;3.15;;;2.13;;
14907;SDS011;7545;52.092;7.006;2023-08-01T11:11:42;8.48;;;2.53;;
14907;SDS011;7545;52.092;7.006;2023-08-01T11:14:08;2.28;;;1.15;;
14907;SDS011;7545;52.092;7.006;2023-08-01T11:16:34;2.03;;;1.08;;
14907;SDS011;7545;52.092;7.006;2023-08-01T11:19:02;5.35;;;1.20;;
14907;SDS011;7545;52.092;7.006;2023-08-01T11:21:27;2.20;;;0.90;;
14907;SDS011;7545;52.092;7.006;2023-08-01T11:23:53;1.60;;;0.90;;
14907;SDS011;7545;52.092;7.006;2023-08-01T11:26:19;2.58;;;1.08;;
14907;SDS011;7545;52.092;7.006;2023-08-01T11:28:45;2.10;;;1.08;;
14907;SDS011;7545;52.092;7.006;2023-08-01T11:31:11;1.40;;;1.10;;
14907;SDS011;7545;52.092;7.006;2023-08-01T11:33:38;3.60;;;1.23;;
14907;SDS011;7545;52.092;7.006;2023-08-01T11:36:04;4.03;;;1.50;;
14907;SDS011;7545;52.092;7.006;2023-08-01T11:38:32;2.17;;;1.30;;
14907;SDS011;7545;52.092;7.006;2023-08-01T11:41:00;4.47;;;1.88;;
14907;SDS011;7545;52.092;7.006;2023-08-01T11:43:26;4.97;;;1.60;;
14907;SDS011;7545;52.092;7.006;2023-08-01T11:46:02;2.25;;;1.33;;
14907;SDS011;7545;52.092;7.006;2023-08-01T11:48:28;4.10;;;2.33;;
14907;SDS011;7545;52.092;7.006;2023-08-01T11:50:57;2.85;;;1.50;;
14907;SDS011;7545;52.092;7.006;2023-08-01T11:53:23;5.55;;;2.50;;
14907;SDS011;7545;52.092;7.006;2023-08-01T11:55:49;3.22;;;1.77;;
14907;SDS011;7545;52.092;7.006;2023-08-01T11:58:27;2.10;;;1.30;;
14907;SDS011;7545;52.092;7.006;2023-08-01T12:01:08;4.50;;;1.42;;
14907;SDS011;7545;52.092;7.006;2023-08-01T12:06:31;5.32;;;1.65;;
14907;SDS011;7545;52.092;7.006;2023-08-01T12:09:06;5.43;;;1.60;;
14907;SDS011;7545;52.092;7.006;2023-08-01T12:11:36;1.80;;;1.08;;
14907;SDS011;7545;52.092;7.006;2023-08-01T12:16:35;6.53;;;1.50;;
14907;SDS011;7545;52.092;7.006;2023-08-01T12:19:01;6.30;;;1.90;;
14907;SDS011;7545;52.092;7.006;2023-08-01T12:21:26;5.60;;;1.77;;
14907;SDS011;7545;52.092;7.006;2023-08-01T12:23:52;3.30;;;1.55;;
14907;SDS011;7545;52.092;7.006;2023-08-01T12:26:18;2.85;;;2.20;;
14907;SDS011;7545;52.092;7.006;2023-08-01T12:28:44;3.45;;;1.50;;
14907;SDS011;7545;52.092;7.006;2023-08-01T12:31:09;3.47;;;1.38;;
14907;SDS011;7545;52.092;7.006;2023-08-01T12:33:35;4.07;;;1.55;;
14907;SDS011;7545;52.092;7.006;2023-08-01T12:36:00;3.58;;;1.63;;
14907;SDS011;7545;52.092;7.006;2023-08-01T12:38:28;6.43;;;1.55;;
14907;SDS011;7545;52.092;7.006;2023-08-01T12:40:54;4.20;;;1.27;;
14907;SDS011;7545;52.092;7.006;2023-08-01T12:43:19;3.13;;;1.30;;
14907;SDS011;7545;52.092;7.006;2023-08-01T12:45:46;2.78;;;1.33;;
14907;SDS011;7545;52.092;7.006;2023-08-01T12:48:12;4.57;;;1.92;;
14907;SDS011;7545;52.092;7.006;2023-08-01T12:50:37;4.13;;;1.42;;
14907;SDS011;7545;52.092;7.006;2023-08-01T12:53:03;1.55;;;1.00;;
14907;SDS011;7545;52.092;7.006;2023-08-01T12:55:28;3.88;;;1.63;;
14907;SDS011;7545;52.092;7.006;2023-08-01T12:57:54;4.43;;;2.22;;
14907;SDS011;7545;52.092;7.006;2023-08-01T13:00:19;3.30;;;1.20;;
14907;SDS011;7545;52.092;7.006;2023-08-01T13:02:45;4.28;;;2.17;;
14907;SDS011;7545;52.092;7.006;2023-08-01T13:05:12;1.65;;;1.02;;
14907;SDS011;7545;52.092;7.006;2023-08-01T13:07:37;2.65;;;1.38;;
14907;SDS011;7545;52.092;7.006;2023-08-01T13:10:03;1.67;;;1.10;;
14907;SDS011;7545;52.092;7.006;2023-08-01T13:12:29;2.42;;;1.15;;
14907;SDS011;7545;52.092;7.006;2023-08-01T13:14:55;3.20;;;1.60;;
14907;SDS011;7545;52.092;7.006;2023-08-01T13:17:20;2.95;;;1.33;;
14907;SDS011;7545;52.092;7.006;2023-08-01T13:19:46;1.92;;;0.85;;
14907;SDS011;7545;52.092;7.006;2023-08-01T13:22:11;6.35;;;1.90;;
14907;SDS011;7545;52.092;7.006;2023-08-01T13:24:37;2.70;;;1.20;;
14907;SDS011;7545;52.092;7.006;2023-08-01T13:27:04;2.33;;;1.00;;
14907;SDS011;7545;52.092;7.006;2023-08-01T13:29:29;2.15;;;1.13;;
14907;SDS011;7545;52.092;7.006;2023-08-01T13:31:55;2.65;;;0.90;;
14907;SDS011;7545;52.092;7.006;2023-08-01T13:34:21;2.20;;;1.20;;
14907;SDS011;7545;52.092;7.006;2023-08-01T13:36:46;4.68;;;1.35;;
14907;SDS011;7545;52.092;7.006;2023-08-01T13:39:12;2.13;;;0.90;;
14907;SDS011;7545;52.092;7.006;2023-08-01T13:41:37;2.47;;;1.20;;
14907;SDS011;7545;52.092;7.006;2023-08-01T13:44:03;5.65;;;1.77;;
14907;SDS011;7545;52.092;7.006;2023-08-01T13:46:29;2.33;;;1.30;;
14907;SDS011;7545;52.092;7.006;2023-08-01T13:48:54;1.63;;;0.98;;
14907;SDS011;7545;52.092;7.006;2023-08-01T13:51:20;1.77;;;1.13;;
14907;SDS011;7545;52.092;7.006;2023-08-01T13:53:46;4.55;;;1.10;;
14907;SDS011;7545;52.092;7.006;2023-08-01T13:56:12;1.83;;;1.23;;
14907;SDS011;7545;52.092;7.006;2023-08-01T13:58:38;3.10;;;0.95;;
14907;SDS011;7545;52.092;7.006;2023-08-01T14:01:05;1.75;;;1.10;;
14907;SDS011;7545;52.092;7.006;2023-08-01T14:03:37;4.63;;;1.42;;
14907;SDS011;7545;52.092;7.006;2023-08-01T14:06:06;1.73;;;1.45;;
14907;SDS011;7545;52.092;7.006;2023-08-01T14:08:33;2.88;;;1.10;;
14907;SDS011;7545;52.092;7.006;2023-08-01T14:11:00;3.25;;;1.30;;
14907;SDS011;7545;52.092;7.006;2023-08-01T14:13:30;2.45;;;1.42;;
14907;SDS011;7545;52.092;7.006;2023-08-01T14:15:55;4.03;;;1.17;;
14907;SDS011;7545;52.092;7.006;2023-08-01T14:18:21;2.83;;;1.67;;
14907;SDS011;7545;52.092;7.006;2023-08-01T14:20:46;3.40;;;1.17;;
14907;SDS011;7545;52.092;7.006;2023-08-01T14:23:12;2.92;;;1.05;;
14907;SDS011;7545;52.092;7.006;2023-08-01T14:25:38;1.65;;;0.88;;
14907;SDS011;7545;52.092;7.006;2023-08-01T14:28:04;2.65;;;1.10;;
14907;SDS011;7545;52.092;7.006;2023-08-01T14:30:30;2.65;;;1.25;;
14907;SDS011;7545;52.092;7.006;2023-08-01T14:33:02;2.20;;;0.98;;
14907;SDS011;7545;52.092;7.006;2023-08-01T14:35:28;1.73;;;1.30;;
14907;SDS011;7545;52.092;7.006;2023-08-01T14:37:54;2.90;;;1.20;;
14907;SDS011;7545;52.092;7.006;2023-08-01T14:40:23;2.67;;;1.20;;
14907;SDS011;7545;52.092;7.006;2023-08-01T14:42:50;4.18;;;1.50;;
14907;SDS011;7545;52.092;7.006;2023-08-01T14:45:15;4.78;;;1.10;;
14907;SDS011;7545;52.092;7.006;2023-08-01T14:47:42;3.90;;;1.33;;
14907;SDS011;7545;52.092;7.006;2023-08-01T14:50:09;3.38;;;1.20;;
14907;SDS011;7545;52.092;7.006;2023-08-01T14:52:35;2.78;;;1.40;;
14907;SDS011;7545;52.092;7.006;2023-08-01T14:55:01;2.63;;;1.20;;
14907;SDS011;7545;52.092;7.006;2023-08-01T14:57:26;1.25;;;1.10;;
14907;SDS011;7545;52.092;7.006;2023-08-01T14:59:53;1.63;;;1.00;;
14907;SDS011;7545;52.092;7.006;2023-08-01T15:02:19;3.00;;;1.17;;
14907;SDS011;7545;52.092;7.006;2023-08-01T15:04:45;2.42;;;1.40;;